• Join FlightAware (Why Join?)
  • Login
  • US Flag 
01:45AM EDT


 

Airport Tracker/Info


-or-


 

Live Flight TrackerFlight Track Log ✈ N8LT ✈ 22-May-2013 ✈ KIOW - KRYY

Flight Track Log - Related Links

Times and Time Zones

All times are in EDT time to prevent confusion due to time zone crossing. See the N8LT flight status page for this flight to view local times or setup timezone preferences in your user account.

Time Position Orientation Groundspeed Altitude Reporting Facility
EDT Latitude Longitude Course Direction KTS MPH feet Rate Location/Type
11:58AM 41.5975 -91.6206 149° Southeast 268 308 6,100  Level Kansas City Center
11:58AM 41.5628 -91.5922 149° Southeast 278 320 8,700 2,220 Climbing Chicago Center
11:59AM 41.4833 -91.5039 140° Southeast 312 359 10,000 840 Climbing Chicago Center
12:00PM 41.4100 -91.4333 144° Southeast 325 374 10,500 2,040 Climbing Chicago Center
12:01PM 41.3425 -91.3606 141° Southeast 319 367 14,300 3,000 Climbing Chicago Center
12:02PM 41.2567 -91.2756 143° Southeast 337 388 16,700 2,160 Climbing Chicago Center
12:03PM 41.1772 -91.1933 142° Southeast 361 415 18,800 1,440 Climbing Chicago Center
12:04PM 41.0911 -91.1031 142° Southeast 393 452 19,700 1,200 Climbing Chicago Center
12:05PM 41.0203 -90.9853 129° Southeast 410 472 21,400 1,740 Climbing Chicago Center
12:07PM 40.9528 -90.8656 127° Southeast 410 472 23,400 1,740 Climbing Chicago Center
12:08PM 40.8858 -90.7417 126° Southeast 415 478 25,100 1,380 Climbing Chicago Center
12:09PM 40.7881 -90.6086 134° Southeast 427 491 26,300 1,200 Climbing Chicago Center
12:10PM 40.7025 -90.4975 135° Southeast 432 497 27,700 1,200 Climbing Chicago Center
12:11PM 40.6203 -90.3822 133° Southeast 434 499 28,900 1,260 Climbing Chicago Center
12:12PM 40.5292 -90.2858 141° Southeast 424 488 30,400 1,380 Climbing Chicago Center
12:13PM 40.4369 -90.2050 146° Southeast 407 468 31,800 1,080 Climbing Chicago Center
12:14PM 40.3472 -90.1211 145° Southeast 402 463 32,700 720 Climbing Chicago Center
12:15PM 40.2422 -90.0186 143° Southeast 397 457 33,300 720 Climbing Chicago Center
12:16PM 40.1531 -89.9361 145° Southeast 395 455 34,200 780 Climbing Chicago Center
12:17PM 40.0661 -89.8528 144° Southeast 390 449 35,000 720 Climbing Chicago Center
12:17PM 40.0306 -89.8183 143° Southeast 389 448 35,200 780 Climbing Kansas City Center
12:18PM 39.9461 -89.7372 144° Southeast 383 441 36,100 660 Climbing Kansas City Center
12:19PM 39.8608 -89.6583 145° Southeast 378 435 36,600 420 Climbing Kansas City Center
12:20PM 39.7739 -89.5806 145° Southeast 379 436 37,000 180 Climbing Kansas City Center
12:21PM 39.6756 -89.4914 145° Southeast 384 442 37,000  Level Kansas City Center
12:22PM 39.5844 -89.4069 144° Southeast 395 455 37,000  Level Kansas City Center
12:23PM 39.4942 -89.3228 144° Southeast 398 458 37,000  Level Kansas City Center
12:24PM 39.4025 -89.2400 145° Southeast 400 460 37,000  Level Kansas City Center
12:25PM 39.3100 -89.1553 145° Southeast 405 466 37,000  Level Kansas City Center
12:26PM 39.2161 -89.0703 145° Southeast 409 471 37,000  Level Kansas City Center
12:28PM 39.1031 -88.9672 145° Southeast 412 474 37,000  Level Kansas City Center
12:29PM 39.0108 -88.8831 145° Southeast 410 472 37,000  Level Kansas City Center
12:30PM 38.9183 -88.7986 145° Southeast 409 471 37,000  Level Kansas City Center
12:31PM 38.8242 -88.7150 145° Southeast 409 471 37,000  Level Kansas City Center
12:32PM 38.7214 -88.6231 145° Southeast 408 470 37,000  Level Kansas City Center
12:33PM 38.6294 -88.5383 144° Southeast 407 468 37,000  Level Kansas City Center
12:34PM 38.5358 -88.4564 146° Southeast 406 467 37,000  Level Kansas City Center
12:35PM 38.4425 -88.3725 145° Southeast 408 470 37,000  Level Kansas City Center
12:36PM 38.3483 -88.2900 145° Southeast 409 471 37,000  Level Kansas City Center
12:37PM 38.2356 -88.1906 145° Southeast 410 472 37,000  Level Kansas City Center
12:38PM 38.1606 -88.1247 145° Southeast 410 472 37,000  Level Indianapolis Center
12:39PM 38.0664 -88.0422 145° Southeast 412 474 37,000  Level Indianapolis Center
12:40PM 37.9714 -87.9594 146° Southeast 413 475 37,000  Level Indianapolis Center
12:41PM 37.8758 -87.8764 146° Southeast 415 478 37,000  Level Indianapolis Center
12:42PM 37.7617 -87.7767 145° Southeast 416 479 37,000  Level Indianapolis Center
12:43PM 37.6639 -87.6931 146° Southeast 420 483 37,000  Level Indianapolis Center
12:44PM 37.5667 -87.6083 145° Southeast 420 483 37,000  Level Indianapolis Center
12:45PM 37.4697 -87.5272 146° Southeast 416 479 37,000  Level Indianapolis Center
12:46PM 37.3722 -87.4456 146° Southeast 419 482 37,000  Level Indianapolis Center
12:47PM 37.2758 -87.3614 145° Southeast 418 481 37,000  Level Indianapolis Center
12:48PM 37.1789 -87.2794 146° Southeast 417 480 37,000  Level Indianapolis Center
12:49PM 37.0817 -87.1967 146° Southeast 418 481 37,000  Level Indianapolis Center
12:49PM 37.0281 -87.1556 149° Southeast 421 484 37,000  Level Memphis Center
12:50PM 36.9319 -87.0711 145° Southeast 421 484 37,000  Level Memphis Center
12:51PM 36.8361 -86.9897 146° Southeast 421 484 37,000  Level Memphis Center
12:52PM 36.7381 -86.9083 146° Southeast 421 484 37,000  Level Memphis Center
12:53PM 36.6419 -86.8269 146° Southeast 421 484 37,000  Level Memphis Center
12:54PM 36.5542 -86.7508 145° Southeast 421 484 37,000  Level Memphis Center
12:55PM 36.4539 -86.6675 146° Southeast 427 491 37,000  Level Memphis Center
12:56PM 36.3556 -86.5869 147° Southeast 427 491 37,000 -720 Level Memphis Center
12:57PM 36.2422 -86.4969 147° Southeast 433 498 35,600 -1,980 Descending Memphis Center
12:58PM 36.1397 -86.4144 147° Southeast 438 504 33,100 -1,320 Descending Memphis Center
12:59PM 36.0433 -86.3344 146° Southeast 430 495 33,000 -60 Descending Memphis Center
01:00PM 35.9428 -86.2547 147° Southeast 430 495 33,000  Level Memphis Center
01:02PM 35.7517 -86.0678 142° Southeast 436 502 33,000  Level Atlanta Center
01:03PM 35.6697 -85.9714 136° Southeast 444 511 33,000  Level Atlanta Center
01:04PM 35.5794 -85.8644 136° Southeast 449 517 33,000 -120 Level Atlanta Center
01:05PM 35.4872 -85.7603 137° Southeast 449 517 32,800 -1,140 Descending Atlanta Center
01:06PM 35.3947 -85.6489 136° Southeast 456 525 30,800 -2,100 Descending Atlanta Center
01:07PM 35.2939 -85.5375 138° Southeast 469 540 28,700 -2,100 Descending Atlanta Center
01:08PM 35.1953 -85.4239 137° Southeast 481 554 26,700 -2,100 Descending Atlanta Center
01:09PM 35.0961 -85.3131 138° Southeast 487 560 24,600 -1,500 Descending Atlanta Center
01:10PM 35.0014 -85.2025 136° Southeast 487 560 23,800 -1,740 Descending Atlanta Center
01:11PM 34.8828 -85.1553 162° South 460 529 21,200 -2,460 Descending Atlanta Center
01:12PM 34.7578 -85.1486 177° South 444 511 18,900 -2,580 Descending Atlanta Center
01:13PM 34.6325 -85.1419 177° South 419 482 16,100 -2,640 Descending Atlanta Center
01:14PM 34.5306 -85.1181 169° South 393 452 13,700 -2,220 Descending Atlanta Center
01:15PM 34.4578 -85.0617 147° Southeast 359 413 11,700 -1,800 Descending Atlanta Center
01:16PM 34.3833 -85.0053 148° Southeast 332 382 10,100 -1,800 Descending Atlanta Center
01:17PM 34.3169 -84.9517 146° Southeast 296 341 8,200 -1,080 Descending Atlanta Center
01:18PM 34.2525 -84.9058 150° Southeast 284 327 8,000 -120 Descending Atlanta Center
01:19PM 34.1903 -84.8575 147° Southeast 274 315 8,000 -1,020 Level Atlanta Center
01:20PM 34.1425 -84.7892 130° Southeast 268 308 6,000 -2,040 Descending Atlanta Center
01:21PM 34.0972 -84.7136 126° Southeast 269 310 4,000 -1,740 Descending Atlanta Center
01:22PM 34.0536 -84.6406 126° Southeast 259 298 2,600 -720 Descending Atlanta Center
01:23PM 34.0436 -84.5803 101° East 209 241 2,600 -360 Level Atlanta Center
01:24PM 34.0333 -84.5350 105° East 158 182 1,900 -600 Descending Atlanta Center
01:25PM 34.0122 -84.5625 227° Southwest 72 83 1,400 -300 Descending Atlanta Center
01:26PM 33.9978 -84.5525 150° Southeast 65 75 1,300 -120 Descending Atlanta Center
01:28PM 34.0132 -84.5971 165° South  Level Estimated
01:35PM 34.0132 -84.5971 337° Northwest  Level Estimated
01:36PM 34.0132 -84.5971 337° Northwest  Level Estimated
01:37PM 34.0132 -84.5971 337° Northwest  Level Estimated
01:38PM 34.0132 -84.5971 337° Northwest  Level Estimated
01:39PM 34.0132 -84.5971 337° Northwest  Level Estimated
01:40PM 34.0132 -84.5971 337° Northwest  Level Estimated
01:41PM 34.0132 -84.5971 337° Northwest  Level Estimated
01:42PM 34.0132 -84.5971 337° Northwest  Level Estimated
01:43PM 34.0132 -84.5971 337° Northwest  Level Estimated
01:44PM 34.0132 -84.5971 337° Northwest  Level Estimated
01:45PM 34.0132 -84.5971 337° Northwest  Level Estimated
01:46PM 34.0132 -84.5971 337° Northwest  Level Estimated
01:47PM 34.0132 -84.5971 337° Northwest  Level Estimated
01:48PM 34.0132 -84.5971 337° Northwest  Level Estimated
01:49PM 34.0132 -84.5971 337° Northwest  Level Estimated
01:50PM 34.0132 -84.5971 337° Northwest  Level Estimated
01:51PM 34.0132 -84.5971 337° Northwest  Level Estimated
01:52PM 34.0132 -84.5971 337° Northwest  Level Estimated
01:53PM 34.0132 -84.5971 337° Northwest  Level Estimated
01:54PM 34.0132 -84.5971 337° Northwest  Level Estimated